createdAt,value
2017-02-04T00:00:24.273Z,11.85
2017-02-04T00:01:04.800Z,11.78
2017-02-04T00:01:45.298Z,11.9
2017-02-04T00:02:25.823Z,11.85
2017-02-04T00:03:06.288Z,11.85
2017-02-04T00:03:46.817Z,11.75
2017-02-04T00:04:27.297Z,11.8
2017-02-04T00:05:07.794Z,11.78
2017-02-04T00:05:48.291Z,11.98
2017-02-04T00:06:28.785Z,11.85
2017-02-04T00:07:09.250Z,11.82
2017-02-04T00:07:49.790Z,11.94
2017-02-04T00:08:30.252Z,11.86
2017-02-04T00:09:10.783Z,11.91
2017-02-04T00:09:51.282Z,11.95
2017-02-04T00:10:31.801Z,11.76
2017-02-04T00:11:12.273Z,11.79
2017-02-04T00:11:52.792Z,11.76
2017-02-04T00:12:33.234Z,11.79
2017-02-04T00:13:13.713Z,11.95
2017-02-04T00:13:54.177Z,11.9
2017-02-04T00:14:34.695Z,11.79
2017-02-04T00:15:15.154Z,11.76
2017-02-04T00:15:55.659Z,11.75
2017-02-04T00:16:36.184Z,11.94
2017-02-04T00:17:16.699Z,11.83
2017-02-04T00:17:57.306Z,11.76
2017-02-04T00:18:37.675Z,11.73
2017-02-04T00:19:18.178Z,11.79
2017-02-04T00:19:58.701Z,11.79
2017-02-04T00:20:39.212Z,11.72
2017-02-04T00:21:19.698Z,11.62
2017-02-04T00:22:00.171Z,11.69
2017-02-04T00:22:40.678Z,11.73
2017-02-04T00:23:21.164Z,11.73
2017-02-04T00:24:01.621Z,11.64
2017-02-04T00:24:42.098Z,11.76
2017-02-04T00:25:22.555Z,11.79
2017-02-04T00:26:03.075Z,11.72
2017-02-04T00:26:43.580Z,11.82
2017-02-04T00:27:24.117Z,11.79
2017-02-04T00:28:04.528Z,11.85
2017-02-04T00:28:45.003Z,11.79
2017-02-04T00:29:25.521Z,11.75
2017-02-04T00:30:05.960Z,11.69
2017-02-04T00:30:46.453Z,11.79
2017-02-04T00:31:26.950Z,11.83
2017-02-04T00:32:07.457Z,11.79
2017-02-04T00:32:47.902Z,11.65
2017-02-04T00:33:28.396Z,11.69
2017-02-04T00:34:08.894Z,11.7
2017-02-04T00:34:49.366Z,11.75
2017-02-04T00:35:29.859Z,11.7
2017-02-04T00:36:10.405Z,11.78
2017-02-04T00:36:50.893Z,11.82
2017-02-04T00:37:31.353Z,11.6
2017-02-04T00:38:11.816Z,11.73
2017-02-04T00:38:52.473Z,11.64
2017-02-04T00:39:32.907Z,11.79
2017-02-04T00:40:13.445Z,11.8
2017-02-04T00:40:53.922Z,11.75
2017-02-04T00:41:34.407Z,11.6
2017-02-04T00:42:14.916Z,11.8
2017-02-04T00:42:55.418Z,11.7
2017-02-04T00:43:35.921Z,11.73
2017-02-04T00:44:16.372Z,11.7
2017-02-04T00:44:56.870Z,11.65
2017-02-04T00:45:37.354Z,11.78
2017-02-04T00:46:18.052Z,11.8
2017-02-04T00:46:58.524Z,11.64
2017-02-04T00:47:39.030Z,11.57
2017-02-04T00:48:19.491Z,11.52
2017-02-04T00:49:00.020Z,11.52
2017-02-04T00:49:40.635Z,11.64
2017-02-04T00:50:21.064Z,11.61
2017-02-04T00:51:01.611Z,11.58
2017-02-04T00:51:42.055Z,11.67
2017-02-04T00:52:22.570Z,11.7
2017-02-04T00:53:03.120Z,11.69
2017-02-04T00:53:43.638Z,11.69
2017-02-04T00:54:24.117Z,11.7
2017-02-04T00:55:04.570Z,11.62
2017-02-04T00:55:45.049Z,11.65
2017-02-04T00:56:25.540Z,11.62
2017-02-04T00:57:06.028Z,11.69
2017-02-04T00:57:46.723Z,11.7
2017-02-04T00:58:27.228Z,11.7
2017-02-04T00:59:07.761Z,11.65
2017-02-04T00:59:48.161Z,11.7
2017-02-04T01:00:28.631Z,11.61
2017-02-04T01:01:09.160Z,11.67
2017-02-04T01:01:49.672Z,11.58
2017-02-04T01:02:30.120Z,11.58
2017-02-04T01:03:10.606Z,11.76
2017-02-04T01:03:51.118Z,11.65
2017-02-04T01:04:31.654Z,11.58
2017-02-04T01:05:12.122Z,11.58
2017-02-04T01:05:52.622Z,11.69
2017-02-04T01:06:33.432Z,11.67
2017-02-04T01:07:13.912Z,11.6
2017-02-04T01:07:54.419Z,11.69
2017-02-04T01:08:34.882Z,11.72
2017-02-04T01:09:15.386Z,11.69
2017-02-04T01:09:55.875Z,11.67
2017-02-04T01:10:36.350Z,11.7
2017-02-04T01:11:16.939Z,11.67
2017-02-04T01:11:57.323Z,11.69
2017-02-04T01:12:37.799Z,11.62
2017-02-04T01:13:18.308Z,11.61
2017-02-04T01:13:58.782Z,11.61
2017-02-04T01:14:39.358Z,11.6
2017-02-04T01:15:19.793Z,11.69
2017-02-04T01:16:00.243Z,11.58
2017-02-04T01:16:40.738Z,11.7
2017-02-04T01:17:21.267Z,11.69
2017-02-04T01:18:01.712Z,11.69
2017-02-04T01:18:42.188Z,11.61
2017-02-04T01:19:22.693Z,11.61
2017-02-04T01:20:03.317Z,11.7
2017-02-04T01:20:43.795Z,11.65
2017-02-04T01:21:24.295Z,11.69
2017-02-04T01:22:04.820Z,11.65
2017-02-04T01:22:45.258Z,11.65
2017-02-04T01:23:25.820Z,11.69
2017-02-04T01:24:06.325Z,11.73
2017-02-04T01:24:46.840Z,11.61
2017-02-04T01:25:27.256Z,11.72
2017-02-04T01:26:07.818Z,11.62
2017-02-04T01:26:48.315Z,11.6
2017-02-04T01:27:28.779Z,11.67
2017-02-04T01:28:09.255Z,11.65
2017-02-04T01:28:49.767Z,11.72
2017-02-04T01:29:30.267Z,11.7
2017-02-04T01:30:10.799Z,11.69
2017-02-04T01:30:51.289Z,11.75
2017-02-04T01:31:31.818Z,11.54
2017-02-04T01:32:12.272Z,11.52
2017-02-04T01:32:52.772Z,11.55
2017-02-04T01:33:33.251Z,11.54
2017-02-04T01:34:13.841Z,11.57
2017-02-04T01:34:54.321Z,11.55
2017-02-04T01:35:34.829Z,11.54
2017-02-04T01:36:15.294Z,11.52
2017-02-04T01:36:55.812Z,11.46
2017-02-04T01:37:36.266Z,11.58
2017-02-04T01:38:16.795Z,11.55
2017-02-04T01:38:57.285Z,11.51
2017-02-04T01:39:37.793Z,11.54
2017-02-04T01:40:18.305Z,11.52
2017-02-04T01:40:58.761Z,11.54
2017-02-04T01:41:39.282Z,11.43
2017-02-04T01:42:19.993Z,11.55
2017-02-04T01:43:00.441Z,11.47
2017-02-04T01:43:40.924Z,11.54
2017-02-04T01:44:21.411Z,11.52
2017-02-04T01:45:01.961Z,11.57
2017-02-04T01:45:42.450Z,11.55
2017-02-04T01:46:22.887Z,11.57
2017-02-04T01:47:03.361Z,11.47
2017-02-04T01:47:43.828Z,11.47
2017-02-04T01:48:24.314Z,11.55
2017-02-04T01:49:04.859Z,11.6
2017-02-04T01:49:45.332Z,11.58
2017-02-04T01:50:25.843Z,11.47
2017-02-04T01:51:06.358Z,11.57
2017-02-04T01:51:46.845Z,11.54
2017-02-04T01:52:27.309Z,11.47
2017-02-04T01:53:07.766Z,11.55
2017-02-04T01:53:48.260Z,11.57
2017-02-04T01:54:28.761Z,11.51
2017-02-04T01:55:09.317Z,11.37
2017-02-04T01:55:49.800Z,11.42
2017-02-04T01:56:30.291Z,11.55
2017-02-04T01:57:10.752Z,11.55
2017-02-04T01:57:51.235Z,11.58
2017-02-04T01:58:31.742Z,11.61
2017-02-04T01:59:12.272Z,11.47
2017-02-04T01:59:52.765Z,11.51
2017-02-04T02:00:33.232Z,11.44
2017-02-04T02:01:13.727Z,11.54
2017-02-04T02:01:54.213Z,11.62
2017-02-04T02:02:34.685Z,11.52
2017-02-04T02:03:15.189Z,11.51
2017-02-04T02:03:55.645Z,11.61
2017-02-04T02:04:36.144Z,11.51
2017-02-04T02:05:16.649Z,11.58
2017-02-04T02:05:57.184Z,11.62
2017-02-04T02:06:37.630Z,11.54
2017-02-04T02:07:18.145Z,11.44
2017-02-04T02:07:58.682Z,11.64
2017-02-04T02:08:39.216Z,11.58
2017-02-04T02:09:19.652Z,11.58
2017-02-04T02:10:00.164Z,11.52
2017-02-04T02:10:40.669Z,11.54
2017-02-04T02:11:21.145Z,11.6
2017-02-04T02:12:01.705Z,11.54
2017-02-04T02:12:42.142Z,11.58
2017-02-04T02:13:22.641Z,11.55
2017-02-04T02:14:03.178Z,11.58
2017-02-04T02:14:43.628Z,11.55
2017-02-04T02:15:24.092Z,11.51
2017-02-04T02:16:04.593Z,11.67
2017-02-04T02:16:45.115Z,11.62
2017-02-04T02:17:25.629Z,11.65
2017-02-04T02:18:06.123Z,11.54
2017-02-04T02:18:46.620Z,11.58
2017-02-04T02:19:27.086Z,11.61
2017-02-04T02:20:07.579Z,11.64
2017-02-04T02:20:48.047Z,11.57
2017-02-04T02:21:28.562Z,11.54
2017-02-04T02:22:09.029Z,11.44
2017-02-04T02:22:49.538Z,11.64
2017-02-04T02:23:30.020Z,11.62
2017-02-04T02:24:10.530Z,11.65
2017-02-04T02:24:51.036Z,11.7
2017-02-04T02:25:31.522Z,11.62
2017-02-04T02:26:11.997Z,11.64
2017-02-04T02:26:52.483Z,11.64
2017-02-04T02:27:32.957Z,11.61
2017-02-04T02:28:13.429Z,11.65
2017-02-04T02:28:53.907Z,11.6
2017-02-04T02:29:34.382Z,11.57
2017-02-04T02:30:14.869Z,11.64
2017-02-04T02:32:28.205Z,11.61
2017-02-04T02:33:08.674Z,11.64
2017-02-04T02:33:49.196Z,11.69
2017-02-04T02:34:29.686Z,11.61
2017-02-04T02:35:10.177Z,11.61
2017-02-04T02:35:50.665Z,11.64
2017-02-04T02:36:31.152Z,11.64
2017-02-04T02:37:11.661Z,11.61
2017-02-04T02:37:52.216Z,11.62
2017-02-04T02:38:32.743Z,11.6
2017-02-04T02:39:13.241Z,11.64
2017-02-04T02:39:53.749Z,11.64
2017-02-04T02:40:34.302Z,11.54
2017-02-04T02:41:14.770Z,11.55
2017-02-04T02:41:55.288Z,11.39
2017-02-04T02:42:35.727Z,11.43
2017-02-04T02:43:16.219Z,11.52
2017-02-04T02:43:56.731Z,11.51
2017-02-04T02:44:37.230Z,11.49
2017-02-04T02:45:17.779Z,11.44
2017-02-04T02:45:58.326Z,11.47
2017-02-04T02:46:38.797Z,11.52
2017-02-04T02:47:19.276Z,11.46
2017-02-04T02:47:59.739Z,11.51
2017-02-04T02:48:40.237Z,11.49
2017-02-04T02:49:20.769Z,11.46
2017-02-04T02:50:01.232Z,11.39
2017-02-04T02:50:41.761Z,11.47
2017-02-04T02:51:22.236Z,11.49
2017-02-04T02:52:02.718Z,11.44
2017-02-04T02:52:43.240Z,11.35
2017-02-04T02:53:23.771Z,11.46
2017-02-04T02:54:04.200Z,11.35
2017-02-04T02:54:44.686Z,11.42
2017-02-04T02:55:25.218Z,11.47
2017-02-04T02:56:05.909Z,11.44
2017-02-04T02:56:46.425Z,11.44
2017-02-04T02:57:26.839Z,11.42
2017-02-04T02:58:07.331Z,11.42
2017-02-04T02:58:47.785Z,11.47
2017-02-04T02:59:28.372Z,11.52
2017-02-04T03:00:08.854Z,11.49
2017-02-04T03:00:49.316Z,11.46
2017-02-04T03:01:29.774Z,11.51
2017-02-04T03:02:10.282Z,11.46
2017-02-04T03:02:50.740Z,11.43
2017-02-04T03:03:31.246Z,11.39
2017-02-04T03:04:11.861Z,11.42
2017-02-04T03:04:52.265Z,11.42
2017-02-04T03:05:32.795Z,11.49
2017-02-04T03:06:13.361Z,11.49
2017-02-04T03:06:53.814Z,11.37
2017-02-04T03:07:34.339Z,11.39
2017-02-04T03:08:14.788Z,11.4
2017-02-04T03:08:55.316Z,11.44
2017-02-04T03:09:35.801Z,11.35
2017-02-04T03:10:16.289Z,11.44
2017-02-04T03:10:56.769Z,11.39
2017-02-04T03:11:37.281Z,11.36
2017-02-04T03:12:17.745Z,11.4
2017-02-04T03:12:58.298Z,11.25
2017-02-04T03:13:38.841Z,11.28
2017-02-04T03:14:19.326Z,11.21
2017-02-04T03:14:59.828Z,11.17
2017-02-04T03:15:40.537Z,11.17
2017-02-04T03:16:21.206Z,11.22
2017-02-04T03:17:01.713Z,11.21
2017-02-04T03:17:42.174Z,11.32
2017-02-04T03:18:22.686Z,11.32
2017-02-04T03:19:03.206Z,11.33
2017-02-04T03:19:43.673Z,11.28
2017-02-04T03:20:24.130Z,11.32
2017-02-04T03:21:04.649Z,11.33
2017-02-04T03:21:45.145Z,11.32
2017-02-04T03:22:25.606Z,11.33
2017-02-04T03:23:06.105Z,11.32
2017-02-04T03:23:46.594Z,11.22
2017-02-04T03:24:27.094Z,11.27
2017-02-04T03:25:07.598Z,11.35
2017-02-04T03:25:48.090Z,11.29
2017-02-04T03:26:28.578Z,11.22
2017-02-04T03:27:09.115Z,11.24
2017-02-04T03:27:49.563Z,11.22
2017-02-04T03:28:30.101Z,11.21
2017-02-04T03:29:10.590Z,11.21
2017-02-04T03:29:51.039Z,11.24
2017-02-04T03:30:31.566Z,11.19
2017-02-04T03:31:12.049Z,11.18
2017-02-04T03:31:52.526Z,11.17
2017-02-04T03:32:33.029Z,11.17
2017-02-04T03:33:13.526Z,11.18
2017-02-04T03:33:54.009Z,11.14
2017-02-04T03:34:34.466Z,11.09
2017-02-04T03:35:14.946Z,11.15
2017-02-04T03:35:55.460Z,11.17
2017-02-04T03:37:53.666Z,11.15
2017-02-04T03:38:34.181Z,11.11
2017-02-04T03:39:14.667Z,11
2017-02-04T03:39:55.177Z,11.02
2017-02-04T03:40:35.660Z,10.99
2017-02-04T03:41:16.174Z,10.97
2017-02-04T03:41:56.647Z,10.89
2017-02-04T03:42:37.214Z,10.92
2017-02-04T03:43:17.700Z,10.84
2017-02-04T03:43:58.114Z,10.97
2017-02-04T03:44:38.566Z,10.86
2017-02-04T03:45:19.088Z,10.94
2017-02-04T03:45:59.572Z,10.94
2017-02-04T03:46:40.021Z,10.84
2017-02-04T03:47:20.521Z,10.85
2017-02-04T03:48:01.008Z,10.86
2017-02-04T03:48:41.507Z,10.79
2017-02-04T03:49:22.005Z,10.91
2017-02-04T03:50:02.546Z,10.89
2017-02-04T03:50:43.012Z,10.89
2017-02-04T03:51:23.427Z,10.88
2017-02-04T03:52:03.939Z,10.88
2017-02-04T03:52:44.484Z,10.88
2017-02-04T03:53:24.976Z,10.82
2017-02-04T03:54:05.452Z,10.86
2017-02-04T03:54:45.917Z,10.79
2017-02-04T03:56:23.783Z,10.92
2017-02-04T03:57:04.251Z,10.82
2017-02-04T03:57:44.736Z,10.84
2017-02-04T03:58:25.250Z,10.86
2017-02-04T03:59:05.724Z,10.86
2017-02-04T03:59:46.246Z,10.89
2017-02-04T04:00:26.746Z,10.84
2017-02-04T04:01:07.205Z,10.82
2017-02-04T04:01:47.732Z,10.7
2017-02-04T04:02:28.219Z,10.61
2017-02-04T04:03:08.685Z,10.68
2017-02-04T04:03:49.170Z,10.71
2017-02-04T04:04:29.620Z,10.73
2017-02-04T04:05:10.093Z,10.73
2017-02-04T04:05:50.570Z,10.6
2017-02-04T04:06:31.079Z,10.68
2017-02-04T04:07:11.622Z,10.66
2017-02-04T04:07:52.099Z,10.64
2017-02-04T04:08:32.572Z,10.7
2017-02-04T04:09:13.071Z,10.78
2017-02-04T04:09:53.597Z,10.71
2017-02-04T04:10:34.013Z,10.73
2017-02-04T04:11:14.546Z,10.55
2017-02-04T04:11:55.004Z,10.61
2017-02-04T04:12:35.541Z,10.55
2017-02-04T04:13:16.009Z,10.61
2017-02-04T04:13:56.585Z,10.63
2017-02-04T04:14:36.996Z,10.59
2017-02-04T04:15:17.504Z,10.59
2017-02-04T04:15:57.956Z,10.64
2017-02-04T04:16:38.461Z,10.59
2017-02-04T04:18:51.684Z,10.59
2017-02-04T04:19:32.211Z,10.6
2017-02-04T04:20:12.676Z,10.67
2017-02-04T04:20:53.164Z,10.7
2017-02-04T04:21:33.673Z,10.63
2017-02-04T04:22:14.150Z,10.61
2017-02-04T04:22:54.667Z,10.68
2017-02-04T04:23:35.139Z,10.78
2017-02-04T04:24:15.642Z,10.76
2017-02-04T04:24:56.181Z,10.78
2017-02-04T04:25:36.639Z,10.76
2017-02-04T04:26:17.095Z,10.81
2017-02-04T04:26:57.625Z,10.73
2017-02-04T04:27:38.120Z,10.71
2017-02-04T04:28:18.575Z,10.82
2017-02-04T04:28:59.039Z,10.6
2017-02-04T04:29:39.547Z,10.71
2017-02-04T04:30:20.046Z,10.7
2017-02-04T04:31:00.522Z,10.71
2017-02-04T04:31:41.044Z,10.7
2017-02-04T04:32:21.891Z,10.61
2017-02-04T04:33:02.415Z,10.67
2017-02-04T04:33:42.884Z,10.64
2017-02-04T04:34:23.375Z,10.73
2017-02-04T04:35:03.838Z,10.78
2017-02-04T04:35:44.331Z,10.61
2017-02-04T04:36:24.832Z,10.67
2017-02-04T04:37:05.298Z,10.7
2017-02-04T04:37:45.806Z,10.71
2017-02-04T04:38:26.294Z,10.55
2017-02-04T04:39:06.797Z,10.61
2017-02-04T04:39:47.271Z,10.64
2017-02-04T04:40:27.831Z,10.59
2017-02-04T04:41:08.385Z,10.59
2017-02-04T04:41:48.796Z,10.61
2017-02-04T04:42:29.279Z,10.67
2017-02-04T04:44:07.227Z,10.64
2017-02-04T04:44:47.739Z,10.68
2017-02-04T04:45:28.281Z,10.61
2017-02-04T04:46:08.776Z,10.61
2017-02-04T04:46:49.289Z,10.68
2017-02-04T04:47:29.747Z,10.6
2017-02-04T04:48:10.235Z,10.73
2017-02-04T04:48:50.737Z,10.61
2017-02-04T04:49:31.173Z,10.6
2017-02-04T04:51:24.507Z,10.63
2017-02-04T04:52:04.955Z,10.66
2017-02-04T04:52:45.481Z,10.55
2017-02-04T04:53:25.951Z,10.67
2017-02-04T04:54:07.220Z,10.68
2017-02-04T04:54:47.703Z,10.6
2017-02-04T04:55:28.238Z,10.52
2017-02-04T04:56:08.690Z,10.52
2017-02-04T04:56:49.226Z,10.6
2017-02-04T04:57:29.726Z,10.55
2017-02-04T04:58:10.211Z,10.55
2017-02-04T04:58:50.678Z,10.63
2017-02-04T04:59:31.222Z,10.55
2017-02-04T05:00:11.745Z,10.6
2017-02-04T05:00:52.163Z,10.6
2017-02-04T05:01:32.673Z,10.56
2017-02-04T05:02:13.303Z,10.52
2017-02-04T05:02:53.819Z,10.41
2017-02-04T05:03:34.276Z,10.55
2017-02-04T05:04:14.840Z,10.55
2017-02-04T05:04:55.337Z,10.47
2017-02-04T05:05:35.849Z,10.47
2017-02-04T05:06:16.310Z,10.52
2017-02-04T05:06:56.861Z,10.42
2017-02-04T05:07:37.292Z,10.42
2017-02-04T05:08:17.838Z,10.33
2017-02-04T05:08:58.379Z,10.36
2017-02-04T05:09:38.887Z,10.34
2017-02-04T05:10:19.350Z,10.38
2017-02-04T05:10:59.843Z,10.34
2017-02-04T05:11:40.345Z,10.4
2017-02-04T05:12:20.863Z,10.3
2017-02-04T05:13:01.338Z,10.45
2017-02-04T05:13:41.806Z,10.52
2017-02-04T05:14:22.307Z,10.53
2017-02-04T05:15:02.823Z,10.45
2017-02-04T05:15:43.302Z,10.52
2017-02-04T05:16:23.782Z,10.56
2017-02-04T05:17:04.274Z,10.51
2017-02-04T05:17:44.782Z,10.56
2017-02-04T05:18:25.248Z,10.38
2017-02-04T05:19:05.772Z,10.34
2017-02-04T05:19:47.316Z,10.4
2017-02-04T05:20:26.707Z,10.38
2017-02-04T05:21:07.208Z,10.42
2017-02-04T05:21:47.685Z,10.34
2017-02-04T05:22:28.222Z,10.29
2017-02-04T05:23:08.776Z,10.36
2017-02-04T05:23:49.229Z,10.33
2017-02-04T05:24:29.747Z,10.42
2017-02-04T05:25:10.255Z,10.4
2017-02-04T05:25:50.738Z,10.27
2017-02-04T05:26:31.196Z,10.27
2017-02-04T05:27:11.715Z,10.29
2017-02-04T05:27:52.186Z,10.34
2017-02-04T05:28:32.665Z,10.36
2017-02-04T05:29:13.186Z,10.44
2017-02-04T05:29:53.619Z,10.3
2017-02-04T05:30:34.198Z,10.34
2017-02-04T05:31:14.682Z,10.41
2017-02-04T05:31:55.201Z,10.41
2017-02-04T05:32:35.749Z,10.3
2017-02-04T05:33:16.182Z,10.36
2017-02-04T05:33:56.703Z,10.33
2017-02-04T05:34:37.203Z,10.38
2017-02-04T05:35:17.643Z,10.2
2017-02-04T05:35:58.196Z,10.17
2017-02-04T05:36:38.676Z,10.17
2017-02-04T05:37:19.184Z,10.14
2017-02-04T05:37:59.643Z,10.08
2017-02-04T05:38:40.132Z,10.15
2017-02-04T05:39:20.644Z,10.17
2017-02-04T05:40:01.098Z,10.12
2017-02-04T05:40:41.576Z,10.18
2017-02-04T05:41:22.085Z,10.17
2017-02-04T05:42:02.608Z,10.27
2017-02-04T05:42:43.102Z,10.23
2017-02-04T05:43:23.617Z,10.25
2017-02-04T05:44:04.134Z,10.18
2017-02-04T05:44:44.577Z,10.18
2017-02-04T05:45:25.076Z,10.17
2017-02-04T05:46:05.574Z,10.15
2017-02-04T05:46:46.049Z,10.12
2017-02-04T05:47:26.612Z,10.15
2017-02-04T05:48:07.129Z,10.26
2017-02-04T05:48:47.729Z,10.3
2017-02-04T05:49:28.127Z,10.23
2017-02-04T05:50:08.614Z,10.17
2017-02-04T05:50:49.105Z,10.29
2017-02-04T05:51:29.623Z,10.2
2017-02-04T05:52:10.094Z,10.25
2017-02-04T05:52:50.619Z,10.15
2017-02-04T05:53:31.108Z,10.17
2017-02-04T05:54:11.568Z,10.15
2017-02-04T05:54:52.106Z,10.23
2017-02-04T05:55:32.564Z,10.25
2017-02-04T05:56:13.043Z,10.23
2017-02-04T05:56:53.507Z,10.17
2017-02-04T05:57:34.034Z,10.14
2017-02-04T05:58:14.526Z,10.07
2017-02-04T05:58:55.038Z,10.07
2017-02-04T05:59:35.534Z,10.04
2017-02-04T06:00:15.998Z,10.09
2017-02-04T06:00:56.513Z,10.07
2017-02-04T06:01:37.002Z,10.12
2017-02-04T06:02:17.488Z,10.05
2017-02-04T06:02:57.990Z,10.05
2017-02-04T06:03:38.576Z,10.09
2017-02-04T06:04:19.078Z,10.18
2017-02-04T06:04:59.585Z,10.14
2017-02-04T06:05:40.024Z,10.04
2017-02-04T06:06:20.520Z,10.11
2017-02-04T06:07:00.995Z,10.07
2017-02-04T06:07:41.526Z,10.04
2017-02-04T06:08:22.051Z,10.15
2017-02-04T06:09:02.507Z,10.09
2017-02-04T06:09:42.981Z,10.18
2017-02-04T06:10:23.460Z,10.11
2017-02-04T06:11:03.973Z,10.01
2017-02-04T06:11:44.536Z,10.07
2017-02-04T06:12:25.056Z,10.04
2017-02-04T06:13:05.536Z,10.09
2017-02-04T06:13:46.082Z,10.23
2017-02-04T06:14:26.534Z,10.18
2017-02-04T06:15:07.060Z,10.02
2017-02-04T06:15:47.524Z,10.18
2017-02-04T06:16:28.092Z,10.09
2017-02-04T06:17:08.558Z,10.05
2017-02-04T06:17:49.108Z,10.18
2017-02-04T06:18:29.717Z,10.05
2017-02-04T06:19:11.716Z,10.14
2017-02-04T06:19:52.304Z,10.14
2017-02-04T06:20:32.891Z,10.22
2017-02-04T06:21:13.372Z,10.17
2017-02-04T06:21:53.843Z,10.23
2017-02-04T06:22:34.396Z,10.14
2017-02-04T06:23:14.859Z,10.22
2017-02-04T06:23:55.372Z,10.18
2017-02-04T06:24:35.910Z,10.17
2017-02-04T06:25:16.481Z,10.07
2017-02-04T06:25:56.950Z,10.15
2017-02-04T06:26:37.459Z,10.2
2017-02-04T06:27:17.927Z,10.05
2017-02-04T06:27:58.428Z,10.07
2017-02-04T06:28:38.881Z,10.04
2017-02-04T06:29:19.391Z,9.94
2017-02-04T06:29:59.884Z,9.99
2017-02-04T06:30:40.401Z,10.11
2017-02-04T06:31:20.911Z,10.02
2017-02-04T06:32:01.558Z,10.12
2017-02-04T06:32:42.049Z,10.08
2017-02-04T06:33:22.574Z,10.11
2017-02-04T06:34:03.076Z,10.04
2017-02-04T06:34:43.519Z,10.09
2017-02-04T06:35:24.041Z,10.05
2017-02-04T06:36:04.489Z,9.99
2017-02-04T06:36:44.996Z,10.07
2017-02-04T06:37:25.513Z,9.96
2017-02-04T06:38:06.003Z,9.94
2017-02-04T06:38:46.483Z,9.94
2017-02-04T06:39:26.958Z,9.97
2017-02-04T06:40:07.646Z,10.08
2017-02-04T06:40:48.185Z,10.07
2017-02-04T06:41:28.640Z,10.07
2017-02-04T06:42:09.124Z,9.93
2017-02-04T06:42:49.611Z,9.96
2017-02-04T06:43:30.082Z,10.05
2017-02-04T06:44:10.568Z,10.01
2017-02-04T06:44:51.099Z,10.02
2017-02-04T06:45:31.573Z,9.97
2017-02-04T06:46:12.110Z,10.01
2017-02-04T06:46:52.633Z,10.07
2017-02-04T06:47:33.108Z,10.05
2017-02-04T06:48:13.606Z,10.01
2017-02-04T06:48:54.063Z,9.99
2017-02-04T06:49:34.579Z,9.99
2017-02-04T06:50:15.268Z,10.04
2017-02-04T06:50:55.551Z,10.07
2017-02-04T06:51:36.048Z,10.12
2017-02-04T06:52:16.573Z,9.97
2017-02-04T06:52:57.023Z,10.01
2017-02-04T06:53:37.510Z,9.99
2017-02-04T06:54:18.059Z,10.09
2017-02-04T06:54:58.501Z,9.97
2017-02-04T06:55:39.043Z,9.96
2017-02-04T06:56:19.509Z,9.96
2017-02-04T06:57:00.104Z,9.93
2017-02-04T06:57:40.567Z,10.04
2017-02-04T06:58:21.078Z,9.96
2017-02-04T06:59:01.591Z,9.99
2017-02-04T06:59:42.095Z,9.96
2017-02-04T07:00:22.555Z,9.96
2017-02-04T07:01:03.029Z,9.91
2017-02-04T07:01:43.533Z,10.08
2017-02-04T07:02:24.053Z,10.07
2017-02-04T07:03:04.556Z,10.05
2017-02-04T07:03:44.991Z,10.14
2017-02-04T07:04:25.480Z,10.08
2017-02-04T07:05:05.978Z,9.99
2017-02-04T07:05:46.471Z,10.04
2017-02-04T07:06:27.103Z,10.05
2017-02-04T07:07:07.575Z,10.07
2017-02-04T07:07:48.112Z,10.04
2017-02-04T07:08:28.591Z,10.11
2017-02-04T07:09:09.168Z,10.2
2017-02-04T07:09:49.610Z,10.22
2017-02-04T07:10:30.082Z,10.17
2017-02-04T07:11:10.582Z,10.11
2017-02-04T07:11:51.158Z,10.08
2017-02-04T07:12:31.568Z,10.2
2017-02-04T07:13:12.062Z,10.22
2017-02-04T07:13:52.538Z,10.11
2017-02-04T07:14:33.103Z,10.08
2017-02-04T07:15:13.494Z,10.07
2017-02-04T07:15:54.223Z,10.07
2017-02-04T07:16:34.686Z,10.05
2017-02-04T07:17:15.171Z,10.02
2017-02-04T07:17:55.632Z,10.02
2017-02-04T07:18:36.148Z,10.07
2017-02-04T07:19:16.706Z,10.07
2017-02-04T07:19:57.161Z,10.07
2017-02-04T07:20:37.653Z,10.07
2017-02-04T07:21:18.168Z,10.04
2017-02-04T07:21:58.708Z,9.97
2017-02-04T07:22:39.134Z,10.05
2017-02-04T07:23:19.678Z,9.94
2017-02-04T07:24:00.153Z,9.99
2017-02-04T07:24:40.685Z,9.94
2017-02-04T07:25:21.289Z,10.02
2017-02-04T07:26:01.769Z,10.04
2017-02-04T07:26:42.247Z,10.09
2017-02-04T07:27:22.721Z,10.08
2017-02-04T07:28:03.251Z,10.04
2017-02-04T07:28:43.737Z,10.04
2017-02-04T07:29:24.194Z,10.02
2017-02-04T07:30:04.697Z,10.14
2017-02-04T07:30:45.242Z,10.15
2017-02-04T07:31:25.754Z,10.11
2017-02-04T07:32:06.170Z,10.07
2017-02-04T07:32:46.693Z,10.08
2017-02-04T07:33:27.193Z,10.2
2017-02-04T07:34:07.629Z,10.12
2017-02-04T07:34:48.115Z,10.22
2017-02-04T07:35:28.582Z,10.15
2017-02-04T07:36:09.140Z,10.17
2017-02-04T07:36:49.616Z,10.33
2017-02-04T07:37:30.088Z,10.29
2017-02-04T07:38:10.593Z,10.25
2017-02-04T07:38:51.097Z,10.26
2017-02-04T07:39:31.569Z,10.09
2017-02-04T07:40:12.083Z,10.07
2017-02-04T07:40:52.547Z,10.18
2017-02-04T07:41:33.096Z,10.3
2017-02-04T07:42:13.566Z,10.29
2017-02-04T07:42:54.060Z,10.33
2017-02-04T07:43:34.607Z,10.29
2017-02-04T07:44:15.081Z,10.17
2017-02-04T07:44:55.628Z,10.3
2017-02-04T07:45:36.103Z,10.23
2017-02-04T07:46:16.654Z,10.27
2017-02-04T07:46:57.197Z,10.33
2017-02-04T07:47:37.582Z,10.41
2017-02-04T07:48:18.095Z,10.4
2017-02-04T07:50:11.169Z,10.38
2017-02-04T07:50:51.738Z,10.53
2017-02-04T07:51:32.291Z,10.41
2017-02-04T07:52:12.958Z,10.52
2017-02-04T07:52:53.436Z,10.34
2017-02-04T07:53:33.946Z,10.42
2017-02-04T07:54:14.577Z,10.4
2017-02-04T07:54:54.998Z,10.3
2017-02-04T07:55:35.506Z,10.33
2017-02-04T07:56:16.002Z,10.27
2017-02-04T07:56:56.450Z,10.3
2017-02-04T07:59:09.037Z,10.26
2017-02-04T08:03:27.844Z,10.56
2017-02-04T08:04:09.393Z,10.53
2017-02-04T08:05:00.503Z,10.44
2017-02-04T08:07:15.361Z,10.42
2017-02-04T08:07:55.662Z,10.42
2017-02-04T08:08:36.604Z,10.52
2017-02-04T08:09:17.308Z,10.61
2017-02-04T08:09:57.821Z,10.53
2017-02-04T08:10:38.354Z,10.61
2017-02-04T08:11:18.817Z,10.52
2017-02-04T08:11:59.327Z,10.61
2017-02-04T08:12:39.812Z,10.52
2017-02-04T08:13:21.228Z,10.71
2017-02-04T08:14:02.211Z,10.67
2017-02-04T08:14:42.780Z,10.63
2017-02-04T08:16:41.268Z,10.59
2017-02-04T08:17:22.020Z,10.61
2017-02-04T08:18:02.661Z,10.66
2017-02-04T08:18:43.480Z,10.64
2017-02-04T08:19:24.015Z,10.7
2017-02-04T08:20:04.650Z,10.71
2017-02-04T08:20:45.115Z,10.61
2017-02-04T08:21:25.750Z,10.63
2017-02-04T08:22:06.428Z,10.63
2017-02-04T08:22:46.811Z,10.61
2017-02-04T08:23:27.300Z,10.53
2017-02-04T08:24:07.806Z,10.79
2017-02-04T08:26:21.305Z,10.63
2017-02-04T08:27:01.795Z,10.59
2017-02-04T08:27:42.397Z,10.74
2017-02-04T08:28:22.875Z,10.6
2017-02-04T08:29:03.371Z,10.84
2017-02-04T08:29:44.173Z,10.82
2017-02-04T08:30:24.662Z,10.79
2017-02-04T08:31:06.733Z,10.85
2017-02-04T08:31:47.467Z,10.84
2017-02-04T08:32:27.796Z,10.81
2017-02-04T08:33:08.393Z,10.71
2017-02-04T08:33:48.835Z,10.76
2017-02-04T08:34:29.379Z,10.73
2017-02-04T08:35:09.878Z,10.81
2017-02-04T08:35:50.407Z,10.86
2017-02-04T08:36:30.945Z,11
2017-02-04T08:37:11.409Z,10.85
2017-02-04T08:37:52.011Z,10.89
2017-02-04T08:38:32.492Z,10.96
2017-02-04T08:39:13.000Z,10.92
2017-02-04T08:39:53.503Z,10.89
2017-02-04T08:40:33.993Z,10.84
2017-02-04T08:41:14.473Z,10.91
2017-02-04T08:41:55.015Z,10.84
2017-02-04T08:42:35.497Z,10.99
2017-02-04T08:43:16.023Z,11.07
2017-02-04T08:43:56.483Z,10.99
2017-02-04T08:44:36.984Z,11.04
2017-02-04T08:45:17.529Z,10.85
2017-02-04T08:45:58.020Z,10.92
2017-02-04T08:46:38.484Z,10.91
2017-02-04T08:47:18.987Z,10.91
2017-02-04T08:47:59.460Z,11.03
2017-02-04T08:48:39.912Z,11.06
2017-02-04T08:49:20.859Z,11.07
2017-02-04T08:50:01.739Z,11.07
2017-02-04T08:50:42.128Z,11.09
2017-02-04T08:51:22.636Z,11.11
2017-02-04T08:52:03.130Z,11.06
2017-02-04T08:52:43.935Z,11.22
2017-02-04T08:53:24.395Z,11.19
2017-02-04T08:54:04.990Z,11.22
2017-02-04T08:54:45.457Z,11.28
2017-02-04T08:55:25.869Z,11.22
2017-02-04T08:56:06.543Z,11.17
2017-02-04T08:56:46.956Z,11.37
2017-02-04T08:57:27.455Z,11.14
2017-02-04T08:58:07.948Z,11.19
2017-02-04T08:58:48.476Z,11.22
2017-02-04T08:59:28.948Z,11.39
2017-02-04T09:00:09.478Z,11.35
2017-02-04T09:00:50.034Z,11.36
2017-02-04T09:01:30.714Z,11.4
2017-02-04T09:02:11.234Z,11.36